Time;durP1;ratioP1;P1;durP2;ratioP2;P2;SDS_P1;SDS_P2;PMS_P1;PMS_P2;Temp;Humidity;BMP_temperature;BMP_pressure;BME280_temperature;BME280_humidity;BME280_pressure;Samples;Min_cycle;Max_cycle;Signal;HPM_P1;HPM_P2
2022/11/03 00:01:36;;;;;;;8.60;4.15;;;;;;;16.76;35.04;95428.38;4946644;28;20277;-68
2022/11/03 00:04:02;;;;;;;6.45;4.38;;;;;;;16.75;35.11;95434.69;4949380;28;20251;-68
2022/11/03 00:06:28;;;;;;;7.43;4.03;;;;;;;16.81;35.12;95438.47;4950571;28;20195;-68
2022/11/03 00:08:57;;;;;;;6.75;4.22;;;;;;;16.80;35.46;95440.31;4951732;28;20192;-68
2022/11/03 00:11:23;;;;;;;8.07;4.20;;;;;;;16.81;35.35;95441.94;4940361;28;20203;-67
2022/11/03 00:13:48;;;;;;;9.60;4.53;;;;;;;16.75;35.62;95438.16;4949907;28;20181;-65
2022/11/03 00:16:13;;;;;;;8.10;4.00;;;;;;;16.78;35.67;95439.66;4965018;28;20307;-68
2022/11/03 00:18:39;;;;;;;6.75;4.28;;;;;;;16.82;35.80;95437.50;4952413;28;20750;-67
2022/11/03 00:21:07;;;;;;;6.13;3.63;;;;;;;16.86;36.26;95436.09;4961674;28;20181;-67
2022/11/03 00:23:38;;;;;;;6.22;4.15;;;;;;;16.88;36.30;95448.19;4942937;28;21071;-68
2022/11/03 00:26:14;;;;;;;7.78;4.20;;;;;;;16.91;36.44;95442.53;4946317;28;20206;-68
2022/11/03 00:28:42;;;;;;;8.30;4.03;;;;;;;16.90;36.84;95432.91;4952618;28;20187;-68
2022/11/03 00:31:28;;;;;;;6.70;4.28;;;;;;;16.81;36.99;95436.63;5030235;28;20189;-67
2022/11/03 00:33:54;;;;;;;7.03;4.35;;;;;;;16.84;37.23;95432.78;5041517;28;20232;-66
2022/11/03 00:36:25;;;;;;;8.30;3.95;;;;;;;16.87;37.14;95433.28;5029165;28;20183;-66
2022/11/03 00:38:51;;;;;;;8.43;4.35;;;;;;;16.91;37.20;95439.88;5027876;28;20550;-66
2022/11/03 00:41:19;;;;;;;8.13;3.97;;;;;;;16.93;37.03;95447.66;5027080;28;20197;-66
2022/11/03 00:43:45;;;;;;;9.77;4.53;;;;;;;17.00;36.94;95447.75;5027238;28;20194;-66
2022/11/03 00:46:11;;;;;;;4.95;4.15;;;;;;;16.94;36.79;95436.03;5029255;28;20935;-66
2022/11/03 00:48:37;;;;;;;7.13;3.88;;;;;;;17.02;37.10;95441.25;5027244;28;20230;-66
2022/11/03 00:51:11;;;;;;;10.57;4.63;;;;;;;17.01;36.99;95447.59;5029608;28;20209;-66
2022/11/03 00:53:42;;;;;;;7.18;4.10;;;;;;;16.95;37.11;95449.13;5023468;28;20217;-66
2022/11/03 00:56:25;;;;;;;9.90;4.25;;;;;;;16.92;37.11;95459.28;5026295;28;20182;-66
2022/11/03 00:58:52;;;;;;;8.27;4.60;;;;;;;16.88;37.30;95453.50;5026135;28;20179;-66
2022/11/03 01:01:24;;;;;;;8.55;4.05;;;;;;;16.88;37.37;95452.69;5023986;28;20186;-66
2022/11/03 01:06:49;;;;;;;8.63;4.40;;;;;;;16.78;37.41;95450.28;5027471;28;20571;-66
2022/11/03 01:09:18;;;;;;;9.27;4.65;;;;;;;16.73;37.40;95456.13;5026729;28;20193;-66
2022/11/03 01:12:06;;;;;;;9.55;5.03;;;;;;;16.78;37.36;95446.81;5026865;28;20197;-66
2022/11/03 01:14:52;;;;;;;9.75;4.90;;;;;;;16.69;37.31;95454.81;5029071;28;20175;-66
2022/11/03 01:17:22;;;;;;;8.93;4.53;;;;;;;16.62;37.95;95453.03;5024513;28;20192;-66
2022/11/03 01:19:49;;;;;;;8.35;4.68;;;;;;;16.61;38.15;95451.41;5025538;28;20191;-66
2022/11/03 01:22:15;;;;;;;6.95;4.63;;;;;;;16.62;38.05;95453.03;5032292;28;20178;-66
2022/11/03 01:24:42;;;;;;;6.45;4.95;;;;;;;16.59;38.21;95454.22;5029310;28;20206;-66
2022/11/03 01:27:13;;;;;;;10.60;5.10;;;;;;;16.62;38.21;95459.19;5027119;28;20225;-65
2022/11/03 01:29:38;;;;;;;7.53;5.05;;;;;;;16.58;38.63;95454.41;5027631;28;20190;-66
2022/11/03 01:32:04;;;;;;;8.73;5.47;;;;;;;16.65;38.63;95455.34;5025810;28;20193;-66
2022/11/03 01:34:30;;;;;;;7.93;4.72;;;;;;;16.57;38.74;95455.41;5029699;28;20543;-66
2022/11/03 01:36:55;;;;;;;9.30;5.43;;;;;;;16.59;38.73;95454.22;5027280;28;20588;-67
2022/11/03 01:39:21;;;;;;;7.47;5.28;;;;;;;16.55;39.07;95458.25;5032597;28;20191;-67
2022/11/03 01:41:49;;;;;;;9.38;5.53;;;;;;;16.55;38.93;95452.94;5030231;28;20621;-67
2022/11/03 01:44:14;;;;;;;10.57;5.57;;;;;;;16.57;39.36;95464.19;5030380;28;20557;-66
2022/11/03 01:47:09;;;;;;;8.65;5.45;;;;;;;16.48;39.45;95460.78;5028173;28;20221;-66
2022/11/03 01:49:46;;;;;;;8.88;4.93;;;;;;;16.45;39.69;95468.28;4987135;28;20203;-66
2022/11/03 01:52:21;;;;;;;7.13;5.32;;;;;;;16.49;39.48;95458.94;4987833;28;20188;-66
2022/11/03 01:54:51;;;;;;;9.10;6.10;;;;;;;16.48;39.89;95463.44;4989439;28;20210;-66
2022/11/03 01:57:24;;;;;;;11.48;6.80;;;;;;;16.42;41.01;95453.53;4986094;28;20274;-66
2022/11/03 01:59:50;;;;;;;9.55;6.43;;;;;;;16.42;41.08;95463.34;4988385;28;20221;-66
2022/11/03 02:02:16;;;;;;;10.13;6.88;;;;;;;16.45;41.31;95465.63;4987553;28;20194;-66
2022/11/03 02:04:42;;;;;;;10.57;6.93;;;;;;;16.37;41.29;95471.00;4984093;28;20208;-66
2022/11/03 02:07:39;;;;;;;10.70;7.03;;;;;;;16.34;41.69;95460.72;4991717;28;20219;-66
2022/11/03 02:10:05;;;;;;;8.88;6.93;;;;;;;16.44;41.68;95469.25;4988934;28;20608;-66
2022/11/03 02:12:32;;;;;;;11.85;7.43;;;;;;;16.45;41.84;95457.66;4981731;28;20180;-66
2022/11/03 02:15:03;;;;;;;14.10;7.60;;;;;;;16.24;42.34;95456.47;4988293;28;20183;-66
2022/11/03 02:17:31;;;;;;;10.95;7.50;;;;;;;16.28;42.21;95463.09;4985891;28;20278;-66
2022/11/03 02:20:03;;;;;;;14.15;8.23;;;;;;;16.32;42.24;95458.25;4988580;28;20211;-66
2022/11/03 02:23:06;;;;;;;11.10;6.97;;;;;;;16.36;42.10;95459.56;4991891;28;20191;-66
2022/11/03 02:25:46;;;;;;;12.30;7.65;;;;;;;16.28;42.37;95462.28;4992028;28;20198;-65
2022/11/03 02:28:15;;;;;;;9.80;7.35;;;;;;;16.24;42.50;95456.47;4989626;28;20184;-66
2022/11/03 02:30:45;;;;;;;10.93;7.78;;;;;;;16.25;42.55;95462.59;4986765;28;20187;-66
2022/11/03 02:33:42;;;;;;;9.80;7.10;;;;;;;16.24;42.53;95458.31;4986971;28;20188;-66
2022/11/03 02:36:46;;;;;;;9.98;6.97;;;;;;;16.24;42.61;95466.25;4981565;28;20184;-66
2022/11/03 02:39:23;;;;;;;12.38;7.70;;;;;;;16.18;42.50;95454.53;5002225;28;20258;-66
2022/11/03 02:41:51;;;;;;;10.43;8.20;;;;;;;16.20;42.81;95463.16;4991259;28;20599;-66
2022/11/03 02:44:18;;;;;;;9.93;8.02;;;;;;;16.14;43.06;95463.00;4973428;28;20212;-66
2022/11/03 02:46:48;;;;;;;11.30;7.47;;;;;;;16.09;43.04;95459.06;4983860;28;20188;-66
2022/11/03 02:49:13;;;;;;;12.77;8.15;;;;;;;16.08;43.17;95456.56;5030414;28;20183;-66
2022/11/03 02:51:39;;;;;;;12.20;7.93;;;;;;;16.07;43.41;95460.25;5024490;28;20189;-66
2022/11/03 02:54:13;;;;;;;12.73;7.90;;;;;;;16.15;43.14;95454.06;5024140;28;20217;-66
2022/11/03 02:56:51;;;;;;;10.85;8.07;;;;;;;16.11;43.04;95469.47;5023917;28;20186;-66
2022/11/03 02:59:26;;;;;;;12.55;8.05;;;;;;;16.06;43.42;95459.41;5024850;28;20174;-66
2022/11/03 03:02:08;;;;;;;9.50;7.60;;;;;;;16.01;43.42;95463.56;5028609;28;20564;-66
2022/11/03 03:04:43;;;;;;;9.48;7.78;;;;;;;16.07;43.37;95462.88;5021150;28;21093;-67
2022/11/03 03:07:40;;;;;;;12.52;8.30;;;;;;;16.01;43.51;95456.47;5029260;28;20395;-66
2022/11/03 03:10:26;;;;;;;11.40;7.80;;;;;;;15.99;43.49;95462.94;5022284;28;20290;-66
2022/11/03 03:12:56;;;;;;;9.57;7.65;;;;;;;15.97;43.31;95462.28;5024965;28;20241;-66
2022/11/03 03:15:36;;;;;;;10.00;7.47;;;;;;;15.98;43.28;95462.09;5024571;28;20192;-66
2022/11/03 03:18:14;;;;;;;12.00;8.45;;;;;;;16.01;43.03;95460.91;5027685;28;20182;-67
2022/11/03 03:20:51;;;;;;;13.10;7.55;;;;;;;15.98;43.20;95467.38;5030594;28;20213;-66
2022/11/03 03:23:24;;;;;;;9.18;7.30;;;;;;;15.94;43.21;95462.63;5030289;28;20208;-66
2022/11/03 03:26:12;;;;;;;11.23;7.97;;;;;;;15.87;43.10;95460.66;5028912;28;20661;-67
2022/11/03 03:28:50;;;;;;;10.02;7.40;;;;;;;15.79;43.49;95463.34;5022633;28;20218;-66
2022/11/03 03:31:18;;;;;;;10.32;7.00;;;;;;;15.77;43.71;95465.38;5025626;28;20208;-66
2022/11/03 03:33:46;;;;;;;12.77;7.20;;;;;;;15.81;43.42;95461.34;5022171;28;20190;-66
2022/11/03 03:36:15;;;;;;;11.75;6.70;;;;;;;15.79;43.40;95465.19;5029339;28;20187;-67
2022/11/03 03:38:48;;;;;;;9.75;7.90;;;;;;;15.83;43.41;95461.19;5027664;28;20189;-66
2022/11/03 03:41:20;;;;;;;15.80;7.40;;;;;;;15.83;43.48;95462.00;5025538;28;20253;-66
2022/11/03 03:43:59;;;;;;;13.95;7.38;;;;;;;15.76;43.71;95462.88;5025446;28;20260;-66
2022/11/03 03:46:30;;;;;;;12.07;7.68;;;;;;;15.72;43.89;95461.59;5027787;28;20500;-67
2022/11/03 03:48:56;;;;;;;10.80;7.63;;;;;;;15.71;44.02;95468.69;5023323;28;20226;-66
2022/11/03 03:51:25;;;;;;;9.98;7.15;;;;;;;15.73;43.84;95471.19;5022965;28;20189;-66
2022/11/03 03:53:51;;;;;;;10.60;7.78;;;;;;;15.73;43.91;95469.34;5025420;28;20201;-67
2022/11/03 03:56:24;;;;;;;10.20;7.90;;;;;;;15.63;44.34;95466.03;5027392;28;20294;-66
2022/11/03 03:58:50;;;;;;;10.88;7.60;;;;;;;15.62;44.17;95462.56;5022508;28;20181;-66
2022/11/03 04:01:15;;;;;;;11.57;8.02;;;;;;;15.57;44.46;95464.91;5029492;28;20193;-67
2022/11/03 04:03:40;;;;;;;9.55;7.55;;;;;;;15.58;44.63;95468.38;5022423;28;20217;-67
2022/11/03 04:06:07;;;;;;;11.57;8.38;;;;;;;15.50;44.49;95471.06;5032963;28;20274;-66
2022/11/03 04:08:33;;;;;;;13.85;8.52;;;;;;;15.42;44.95;95472.75;5023826;28;20202;-65
2022/11/03 04:24:39;;;;;;;11.38;8.23;;;;;;;15.18;46.21;95481.59;5028185;28;20808;-66
2022/11/03 04:27:40;;;;;;;13.35;9.23;;;;;;;15.14;46.54;95476.78;5024789;28;20270;-65
2022/11/03 04:30:08;;;;;;;14.95;9.55;;;;;;;15.07;46.45;95476.63;5027916;28;20193;-65
2022/11/03 04:32:34;;;;;;;12.40;8.40;;;;;;;14.88;47.21;95471.69;5029453;28;20192;-65
2022/11/03 04:35:02;;;;;;;15.10;10.02;;;;;;;14.87;47.29;95465.56;5024928;28;20181;-65
2022/11/03 04:37:28;;;;;;;12.23;9.52;;;;;;;14.86;47.44;95469.22;5029197;28;20531;-65
2022/11/03 04:40:01;;;;;;;13.57;10.07;;;;;;;14.86;47.52;95468.38;5021258;28;20179;-65
2022/11/03 04:42:31;;;;;;;12.93;9.50;;;;;;;14.89;47.43;95471.53;5029562;28;20214;-66
2022/11/03 04:45:00;;;;;;;12.30;9.77;;;;;;;14.85;47.48;95470.22;5028933;28;20206;-65
2022/11/03 04:47:25;;;;;;;13.10;9.75;;;;;;;14.80;47.62;95467.22;5022078;28;20313;-66
2022/11/03 04:49:51;;;;;;;15.65;10.35;;;;;;;14.77;47.52;95464.91;5026576;28;20201;-66
2022/11/03 04:52:20;;;;;;;12.25;9.13;;;;;;;14.88;47.46;95469.88;5025355;28;20185;-66
2022/11/03 04:54:48;;;;;;;14.02;9.70;;;;;;;14.70;48.13;95466.56;5026696;28;20174;-67
2022/11/03 04:57:15;;;;;;;12.98;9.65;;;;;;;14.60;48.33;95469.41;5031018;28;20236;-66
2022/11/03 04:59:44;;;;;;;13.05;10.60;;;;;;;14.67;48.25;95475.66;5032665;28;20228;-66
2022/11/03 05:02:13;;;;;;;17.10;10.60;;;;;;;14.55;48.73;95475.19;5033316;28;20186;-66
2022/11/03 05:04:39;;;;;;;15.38;9.95;;;;;;;14.44;49.06;95474.66;5029606;28;20801;-66
2022/11/03 05:07:21;;;;;;;15.25;10.60;;;;;;;14.33;49.62;95475.81;5029814;28;20229;-67
2022/11/03 05:09:46;;;;;;;15.40;10.48;;;;;;;14.35;49.44;95473.78;5033559;28;20186;-67
2022/11/03 05:12:12;;;;;;;18.60;10.75;;;;;;;14.36;49.62;95482.59;5029250;28;20242;-67
2022/11/03 05:14:37;;;;;;;19.25;11.27;;;;;;;14.35;49.55;95489.66;5032581;28;20305;-67
2022/11/03 05:17:14;;;;;;;20.13;10.82;;;;;;;14.32;49.78;95487.34;5032959;28;20182;-67
2022/11/03 05:19:42;;;;;;;14.15;10.80;;;;;;;14.38;49.54;95486.72;5028644;28;20194;-67
2022/11/03 05:22:16;;;;;;;14.68;10.63;;;;;;;14.39;50.00;95493.66;5030011;28;20794;-67
2022/11/03 05:24:42;;;;;;;14.95;10.68;;;;;;;14.46;49.42;95494.66;5027046;28;20623;-66
2022/11/03 05:27:18;;;;;;;19.98;11.15;;;;;;;14.54;49.17;95486.78;5024483;28;20214;-66
2022/11/03 05:29:43;;;;;;;17.70;11.45;;;;;;;14.32;49.96;95488.19;5026420;28;20663;-67
2022/11/03 05:32:22;;;;;;;16.92;11.00;;;;;;;14.36;50.00;95494.00;5030632;28;20186;-66
2022/11/03 05:34:50;;;;;;;16.33;11.73;;;;;;;14.43;49.84;95502.91;5031433;28;20178;-67
2022/11/03 05:37:28;;;;;;;19.42;11.93;;;;;;;14.49;49.84;95507.56;5031186;28;20186;-67
2022/11/03 05:39:57;;;;;;;15.70;11.68;;;;;;;14.33;50.35;95505.72;5031743;28;20284;-66
2022/11/03 05:42:22;;;;;;;18.65;12.02;;;;;;;14.44;50.13;95504.59;5023725;28;20285;-66
2022/11/03 05:44:49;;;;;;;21.85;11.73;;;;;;;14.47;49.87;95503.44;5028810;28;20352;-66
2022/11/03 05:47:21;;;;;;;18.10;12.27;;;;;;;14.59;49.66;95515.38;5024626;28;20194;-67
2022/11/03 05:49:48;;;;;;;18.75;12.57;;;;;;;14.53;49.87;95514.19;5026389;28;20194;-66
2022/11/03 05:52:19;;;;;;;19.90;11.95;;;;;;;14.52;49.93;95522.28;5024984;28;20265;-66
2022/11/03 05:54:45;;;;;;;18.48;11.88;;;;;;;14.68;49.64;95524.97;5029931;28;20264;-66
2022/11/03 05:57:13;;;;;;;21.55;12.82;;;;;;;14.73;49.58;95522.66;5027990;28;20186;-66
2022/11/03 05:59:39;;;;;;;17.55;12.10;;;;;;;14.85;49.08;95524.97;5027865;28;20233;-67
2022/11/03 06:02:40;;;;;;;18.00;12.68;;;;;;;14.95;48.73;95525.66;5026865;28;21462;-66
2022/11/03 06:05:20;;;;;;;17.65;13.52;;;;;;;15.10;48.35;95528.44;5027518;28;20205;-67
2022/11/03 06:07:46;;;;;;;16.65;12.88;;;;;;;15.06;48.61;95540.38;5041661;28;20186;-68
2022/11/03 06:10:26;;;;;;;16.88;13.57;;;;;;;14.96;48.99;95541.34;5023627;28;20547;-67
2022/11/03 06:13:00;;;;;;;17.23;13.27;;;;;;;14.87;49.32;95537.06;5026359;28;20248;-66
2022/11/03 06:15:34;;;;;;;18.00;13.43;;;;;;;15.13;48.68;95547.50;5024298;28;20179;-67
2022/11/03 06:18:09;;;;;;;16.40;12.88;;;;;;;15.06;49.07;95550.97;5027666;28;20537;-66
2022/11/03 06:20:35;;;;;;;18.58;12.32;;;;;;;15.14;48.82;95543.00;5025789;28;20421;-66
2022/11/03 06:23:01;;;;;;;16.85;13.35;;;;;;;15.28;49.12;95550.28;5028732;28;20684;-66
2022/11/03 06:25:36;;;;;;;17.30;13.50;;;;;;;15.30;49.88;95539.53;5031149;28;20784;-66
2022/11/03 06:28:08;;;;;;;21.90;13.98;;;;;;;15.35;48.85;95545.97;5023568;28;20264;-65
2022/11/03 06:30:40;;;;;;;24.13;13.57;;;;;;;15.28;48.93;95552.91;5029809;28;20182;-66
2022/11/03 06:33:26;;;;;;;19.50;13.95;;;;;;;15.47;48.11;95557.03;5026796;28;20190;-68
2022/11/03 06:36:14;;;;;;;19.40;13.73;;;;;;;15.54;48.00;95559.84;5026194;28;20224;-68
2022/11/03 06:38:40;;;;;;;16.65;13.73;;;;;;;15.76;47.38;95564.44;5025354;28;20195;-69
2022/11/03 06:41:16;;;;;;;23.30;15.00;;;;;;;15.71;47.54;95565.97;5025760;28;20233;-68
2022/11/03 06:43:42;;;;;;;19.25;13.70;;;;;;;15.90;46.91;95567.38;5037834;28;20695;-69
2022/11/03 06:46:33;;;;;;;17.88;14.10;;;;;;;15.92;46.58;95563.56;5026974;28;20186;-68
2022/11/03 06:49:03;;;;;;;21.80;13.95;;;;;;;16.01;46.57;95567.88;5026915;28;20257;-68
2022/11/03 06:51:29;;;;;;;19.50;14.55;;;;;;;16.09;46.28;95564.31;5029154;28;20201;-68
2022/11/03 06:53:58;;;;;;;18.17;14.02;;;;;;;16.19;46.10;95566.78;5027602;28;20178;-68
2022/11/03 06:56:28;;;;;;;20.02;14.10;;;;;;;16.20;46.04;95566.63;5027001;28;20190;-69
2022/11/03 06:58:56;;;;;;;19.27;14.02;;;;;;;16.20;46.06;95561.31;5023473;28;20274;-69
2022/11/03 07:01:29;;;;;;;18.30;13.88;;;;;;;16.26;45.77;95560.63;5023676;28;20249;-68
2022/11/03 07:04:05;;;;;;;19.15;14.63;;;;;;;16.31;45.99;95566.22;5024168;28;20205;-69
2022/11/03 07:06:35;;;;;;;17.80;14.35;;;;;;;16.42;45.45;95561.53;5007681;28;20191;-69
2022/11/03 07:09:03;;;;;;;17.95;13.75;;;;;;;16.51;45.17;95565.78;5028480;28;20209;-72
2022/11/03 07:11:33;;;;;;;22.38;14.77;;;;;;;16.56;44.91;95554.66;5028878;28;20293;-72
2022/11/03 07:14:13;;;;;;;22.60;15.07;;;;;;;16.59;45.17;95552.47;5022228;28;20256;-72
2022/11/03 07:16:46;;;;;;;19.73;13.48;;;;;;;16.56;45.32;95552.81;5024283;28;20221;-70
2022/11/03 07:19:23;;;;;;;19.70;14.77;;;;;;;16.72;44.70;95546.56;5024815;28;20178;-67
2022/11/03 07:21:51;;;;;;;19.48;14.63;;;;;;;16.86;44.45;95545.00;5028532;28;20192;-68
2022/11/03 07:24:25;;;;;;;20.20;14.27;;;;;;;16.75;44.62;95544.38;5024102;28;20203;-67
2022/11/03 07:27:09;;;;;;;18.70;14.10;;;;;;;16.74;44.67;95541.91;5025107;28;20179;-71
2022/11/03 07:29:35;;;;;;;19.83;16.20;;;;;;;16.88;44.36;95546.47;5027359;28;20280;-72
2022/11/03 07:32:01;;;;;;;15.80;13.55;;;;;;;16.89;44.09;95542.00;5027585;28;20285;-72
2022/11/03 07:34:32;;;;;;;21.90;14.13;;;;;;;16.96;43.93;95545.59;5029440;28;20891;-71
2022/11/03 07:36:57;;;;;;;19.15;14.52;;;;;;;16.93;43.89;95544.13;5026193;28;20257;-71
2022/11/03 07:39:27;;;;;;;18.25;14.15;;;;;;;16.93;44.13;95544.13;5027813;28;20213;-71
2022/11/03 07:41:52;;;;;;;18.80;13.15;;;;;;;17.05;43.75;95551.66;5028784;28;20187;-72
2022/11/03 07:44:20;;;;;;;20.63;14.38;;;;;;;17.05;43.75;95541.84;5028254;28;20202;-71
2022/11/03 07:46:47;;;;;;;19.00;13.52;;;;;;;16.98;44.10;95543.59;5028127;28;20175;-72
2022/11/03 07:49:25;;;;;;;16.70;13.70;;;;;;;16.96;43.98;95538.44;5025381;28;20253;-72
2022/11/03 07:51:52;;;;;;;18.65;14.73;;;;;;;17.02;43.72;95541.41;5020399;28;20186;-72
2022/11/03 07:54:25;;;;;;;19.88;14.93;;;;;;;17.05;44.10;95544.50;5027802;28;20197;-71
2022/11/03 07:56:55;;;;;;;20.98;14.05;;;;;;;17.25;43.49;95549.34;5023460;28;20188;-71
2022/11/03 07:59:27;;;;;;;18.35;14.23;;;;;;;17.25;43.67;95538.72;5042562;28;20258;-72
2022/11/03 08:01:54;;;;;;;21.15;15.50;;;;;;;17.09;44.05;95526.41;5018513;28;20216;-72
2022/11/03 08:04:26;;;;;;;24.08;14.85;;;;;;;17.19;43.55;95525.13;5010696;28;20359;-71
2022/11/03 08:06:51;;;;;;;18.90;14.75;;;;;;;17.23;43.69;95532.75;5026064;28;20194;-71
2022/11/03 08:09:18;;;;;;;20.80;14.45;;;;;;;17.27;43.81;95523.38;5028507;28;20189;-72
2022/11/03 08:11:44;;;;;;;23.27;15.23;;;;;;;17.38;43.66;95525.63;5021851;28;20200;-71
2022/11/03 08:14:10;;;;;;;25.92;15.80;;;;;;;17.38;43.32;95518.47;5022093;28;20205;-71
2022/11/03 08:16:36;;;;;;;17.52;13.27;;;;;;;17.58;42.51;95512.63;5023783;28;20285;-71
2022/11/03 08:19:01;;;;;;;19.95;14.93;;;;;;;17.57;42.52;95516.28;5026882;28;20248;-71
2022/11/03 08:21:27;;;;;;;18.98;14.40;;;;;;;17.64;42.24;95514.53;5028264;28;20273;-71
2022/11/03 08:23:53;;;;;;;19.92;14.05;;;;;;;17.43;42.79;95509.97;5027529;28;20206;-70
2022/11/03 08:26:19;;;;;;;24.00;16.05;;;;;;;17.53;43.07;95509.69;5022096;28;20197;-71
2022/11/03 08:28:45;;;;;;;19.08;14.82;;;;;;;17.57;42.85;95509.13;5027160;28;20623;-71
2022/11/03 08:31:10;;;;;;;18.52;13.52;;;;;;;17.68;42.41;95507.03;5024483;28;20190;-72
2022/11/03 08:33:35;;;;;;;20.58;15.00;;;;;;;17.72;42.64;95509.16;5025597;28;20622;-72
2022/11/03 08:36:03;;;;;;;19.45;15.65;;;;;;;17.69;43.04;95496.19;5028527;28;20192;-71
2022/11/03 08:38:29;;;;;;;18.23;15.55;;;;;;;17.81;42.99;95499.25;5026252;28;20495;-71
2022/11/03 08:40:55;;;;;;;22.33;16.25;;;;;;;17.86;42.07;95494.22;5021462;28;20224;-71
2022/11/03 08:43:21;;;;;;;22.80;15.50;;;;;;;17.95;41.89;95497.59;5024167;28;20194;-71
2022/11/03 08:45:55;;;;;;;20.45;15.60;;;;;;;18.09;41.75;95502.06;5020398;28;20217;-72
2022/11/03 08:48:28;;;;;;;20.38;14.35;;;;;;;18.14;41.52;95504.16;5023541;28;20229;-71
2022/11/03 08:50:54;;;;;;;20.48;16.08;;;;;;;18.14;42.07;95496.19;5027459;28;20209;-71
2022/11/03 08:53:22;;;;;;;20.80;15.25;;;;;;;17.97;42.07;95506.22;5025263;28;20190;-71
2022/11/03 08:55:47;;;;;;;24.38;15.57;;;;;;;18.21;41.47;95497.09;5021840;28;20201;-72
2022/11/03 08:58:12;;;;;;;18.45;14.40;;;;;;;18.44;41.19;95511.09;5028819;28;20190;-72
2022/11/03 09:00:38;;;;;;;20.63;14.90;;;;;;;18.54;40.67;95504.63;5025418;28;20269;-71
2022/11/03 09:03:03;;;;;;;20.30;13.85;;;;;;;18.55;40.11;95503.59;5025687;28;20226;-72
2022/11/03 09:05:29;;;;;;;18.70;14.07;;;;;;;18.62;39.68;95504.50;5020011;28;20229;-71
2022/11/03 09:07:54;;;;;;;19.40;13.43;;;;;;;18.50;39.82;95499.66;5028335;28;20228;-72
2022/11/03 09:10:20;;;;;;;18.95;13.65;;;;;;;18.52;39.89;95497.66;5027305;28;20256;-71
2022/11/03 09:12:45;;;;;;;19.90;14.07;;;;;;;18.53;39.98;95501.13;5025787;28;20273;-71
2022/11/03 09:15:11;;;;;;;17.15;13.05;;;;;;;18.71;39.57;95498.00;5026870;28;20907;-71
2022/11/03 09:17:37;;;;;;;17.95;13.38;;;;;;;18.82;39.43;95494.88;5019679;28;20199;-71
2022/11/03 09:20:03;;;;;;;19.27;13.20;;;;;;;18.74;39.38;95484.34;5024831;28;20194;-71
2022/11/03 09:22:29;;;;;;;19.20;12.60;;;;;;;18.96;38.93;95485.16;5021828;28;20448;-71
2022/11/03 09:24:54;;;;;;;17.23;12.95;;;;;;;19.02;38.78;95473.72;5023650;28;20252;-72
2022/11/03 09:27:20;;;;;;;21.50;13.48;;;;;;;19.01;38.45;95466.75;5022098;28;20202;-72
2022/11/03 09:29:45;;;;;;;13.80;12.30;;;;;;;19.03;38.43;95474.53;5027255;28;20183;-72
2022/11/03 09:32:11;;;;;;;15.25;12.35;;;;;;;19.11;38.29;95471.75;5023439;28;20779;-74
2022/11/03 09:34:36;;;;;;;19.23;12.77;;;;;;;19.30;37.95;95476.41;5021098;28;20258;-73
2022/11/03 09:37:02;;;;;;;18.48;13.10;;;;;;;19.20;38.20;95467.94;5023858;28;20197;-73
2022/11/03 09:39:27;;;;;;;20.48;13.13;;;;;;;19.47;37.58;95470.78;5028113;28;20217;-73
2022/11/03 09:41:54;;;;;;;18.48;13.40;;;;;;;19.42;37.34;95452.69;5030182;28;20257;-74
2022/11/03 09:44:20;;;;;;;15.40;12.82;;;;;;;19.34;37.60;95458.16;5026564;28;20577;-72
2022/11/03 09:46:46;;;;;;;21.77;13.10;;;;;;;19.33;37.72;95452.03;5030640;28;20213;-71
2022/11/03 09:49:14;;;;;;;15.00;11.98;;;;;;;19.32;37.69;95450.34;5028075;28;20245;-70
2022/11/03 09:51:40;;;;;;;22.23;13.10;;;;;;;19.65;37.96;95446.25;5028454;28;20287;-70
2022/11/03 09:54:09;;;;;;;19.95;12.85;;;;;;;19.92;37.23;95449.91;5024011;28;20634;-71
2022/11/03 09:56:35;;;;;;;19.23;12.55;;;;;;;20.13;36.98;95443.59;5027889;28;20210;-71
2022/11/03 09:59:03;;;;;;;18.38;13.00;;;;;;;20.16;36.49;95441.34;5029026;28;20209;-71
2022/11/03 10:01:29;;;;;;;19.13;13.18;;;;;;;20.19;36.66;95432.13;5028068;28;20198;-71
2022/11/03 10:03:59;;;;;;;17.40;12.25;;;;;;;20.24;35.83;95435.84;5029299;28;20205;-70
2022/11/03 10:06:25;;;;;;;19.02;11.88;;;;;;;20.20;35.83;95428.41;5025658;28;20202;-71
2022/11/03 10:08:50;;;;;;;21.38;12.40;;;;;;;20.38;35.64;95428.66;5030007;28;20187;-71
2022/11/03 10:11:16;;;;;;;19.10;13.10;;;;;;;20.43;35.61;95412.03;5027669;28;20186;-72
2022/11/03 10:13:46;;;;;;;14.85;11.23;;;;;;;20.33;35.20;95403.59;5025216;28;20197;-72
2022/11/03 10:16:15;;;;;;;15.02;11.02;;;;;;;20.38;35.19;95412.66;5028142;28;20658;-72
2022/11/03 10:18:42;;;;;;;17.67;11.55;;;;;;;20.44;35.25;95408.34;5026606;28;20846;-72
2022/11/03 10:21:26;;;;;;;17.23;11.18;;;;;;;20.58;34.94;95404.69;5025344;28;20206;-72
2022/11/03 10:23:51;;;;;;;17.60;11.13;;;;;;;20.79;34.26;95397.50;5026433;28;20218;-71
2022/11/03 10:26:18;;;;;;;17.10;11.10;;;;;;;20.58;34.83;95393.16;5024336;28;20197;-68
2022/11/03 10:29:18;;;;;;;16.70;9.70;;;;;;;20.67;33.52;95391.97;5026564;28;20205;-70
2022/11/03 10:31:48;;;;;;;16.25;10.90;;;;;;;20.86;34.55;95395.66;5021873;28;20190;-71
2022/11/03 10:34:24;;;;;;;14.85;9.50;;;;;;;21.06;33.02;95388.44;5024054;28;20190;-67
2022/11/03 10:36:50;;;;;;;13.13;9.57;;;;;;;21.17;32.58;95381.63;5025766;28;20328;-69
2022/11/03 10:39:32;;;;;;;12.82;9.20;;;;;;;21.26;32.86;95376.88;5026073;28;20257;-70
2022/11/03 10:41:58;;;;;;;19.52;9.93;;;;;;;21.25;33.20;95375.22;5027764;28;20194;-70
2022/11/03 10:44:28;;;;;;;15.07;9.77;;;;;;;21.34;33.69;95371.31;5026024;28;20216;-70
2022/11/03 10:46:59;;;;;;;15.07;9.35;;;;;;;21.54;31.86;95363.22;5028641;28;20209;-70
2022/11/03 10:49:28;;;;;;;13.30;9.77;;;;;;;21.32;32.38;95358.13;5028589;28;20291;-71
2022/11/03 10:52:06;;;;;;;20.92;10.35;;;;;;;21.48;32.56;95356.88;5026856;28;20191;-71
2022/11/03 10:54:35;;;;;;;17.52;9.82;;;;;;;21.73;32.27;95348.13;5025310;28;20191;-70
2022/11/03 10:57:00;;;;;;;14.77;9.18;;;;;;;21.82;32.53;95346.06;5027521;28;20190;-70
2022/11/03 10:59:36;;;;;;;12.15;9.02;;;;;;;21.70;31.58;95327.97;5024923;28;20200;-70
2022/11/03 11:02:14;;;;;;;15.48;9.63;;;;;;;21.62;31.78;95341.59;5024596;28;20190;-70
2022/11/03 11:04:40;;;;;;;14.77;9.88;;;;;;;21.63;31.77;95331.72;5025514;28;20214;-71
2022/11/03 11:07:17;;;;;;;14.63;9.20;;;;;;;22.03;30.98;95332.34;5040768;28;20193;-71
2022/11/03 11:09:43;;;;;;;15.50;9.15;;;;;;;21.77;30.89;95317.25;5028523;28;20230;-71
2022/11/03 11:12:14;;;;;;;13.02;8.25;;;;;;;22.16;31.19;95326.91;5022916;28;20218;-71
2022/11/03 11:14:52;;;;;;;13.60;7.88;;;;;;;22.48;30.66;95318.03;5018468;28;20266;-71
2022/11/03 11:17:36;;;;;;;12.98;8.18;;;;;;;22.64;29.72;95314.78;5026848;28;20193;-71
2022/11/03 11:20:29;;;;;;;12.32;8.05;;;;;;;22.94;29.29;95319.50;5027533;28;20199;-71
2022/11/03 11:22:54;;;;;;;13.43;8.05;;;;;;;23.16;28.63;95310.00;5025870;28;20229;-69
2022/11/03 11:25:20;;;;;;;11.63;7.57;;;;;;;23.30;28.25;95306.13;5028661;28;20300;-71
2022/11/03 11:27:55;;;;;;;11.85;7.70;;;;;;;23.55;27.58;95307.91;5027039;28;20190;-71
2022/11/03 11:30:21;;;;;;;13.52;7.82;;;;;;;23.58;27.48;95299.41;5023103;28;20223;-71
2022/11/03 11:32:59;;;;;;;11.57;7.28;;;;;;;23.39;27.18;95295.91;5026542;28;20727;-71
2022/11/03 11:35:25;;;;;;;13.77;6.57;;;;;;;23.14;27.18;95287.13;5027325;28;20182;-71
2022/11/03 11:37:51;;;;;;;9.90;5.82;;;;;;;23.23;27.56;95289.28;5027395;28;20201;-71
2022/11/03 11:40:23;;;;;;;7.25;4.65;;;;;;;23.85;25.53;95280.28;5026633;28;20186;-71
2022/11/03 11:43:12;;;;;;;11.07;6.25;;;;;;;31.14;17.40;95280.00;5028826;28;20200;-70
2022/11/03 11:46:15;;;;;;;9.40;6.00;;;;;;;37.23;12.23;95277.06;5027695;28;20213;-71
2022/11/03 11:48:41;;;;;;;13.65;5.93;;;;;;;38.28;10.49;95276.31;5026156;28;20260;-71
2022/11/03 11:51:10;;;;;;;10.13;5.50;;;;;;;40.92;9.08;95282.84;5025682;28;20218;-71
2022/11/03 11:53:43;;;;;;;9.70;4.90;;;;;;;40.48;8.63;95278.88;5024694;28;20183;-71
2022/11/03 11:56:12;;;;;;;10.50;4.75;;;;;;;42.25;7.91;95270.72;5026331;28;20218;-69
2022/11/03 11:58:50;;;;;;;10.13;5.40;;;;;;;38.70;9.82;95256.59;5019622;28;20225;-70